Time;durP1;ratioP1;P1;durP2;ratioP2;P2;SDS_P1;SDS_P2;PMS_P1;PMS_P2;Temp;Humidity;BMP_temperature;BMP_pressure;BME280_temperature;BME280_humidity;BME280_pressure;Samples;Min_cycle;Max_cycle;Signal;HPM_P1;HPM_P2
2022/05/19 00:01:52;;;;;;;13.68;4.40;;;;;;;;;;1734140;82;21056;-69
2022/05/19 00:04:18;;;;;;;9.90;5.42;;;;;;;;;;1753121;82;21552;-68
2022/05/19 00:06:44;;;;;;;8.35;4.67;;;;;;;;;;1744389;81;21068;-67
2022/05/19 00:09:10;;;;;;;7.45;4.25;;;;;;;;;;1731565;82;21036;-69
2022/05/19 00:11:36;;;;;;;9.88;4.90;;;;;;;;;;1738356;82;21181;-69
2022/05/19 00:14:02;;;;;;;9.23;4.70;;;;;;;;;;1735073;82;21505;-69
2022/05/19 00:16:29;;;;;;;9.60;4.67;;;;;;;;;;1723826;82;21045;-69
2022/05/19 00:18:55;;;;;;;7.55;4.42;;;;;;;;;;1748614;82;21019;-69
2022/05/19 00:21:21;;;;;;;8.40;4.87;;;;;;;;;;1749039;82;20989;-69
2022/05/19 00:23:48;;;;;;;10.88;5.00;;;;;;;;;;1723516;82;21183;-69
2022/05/19 00:26:14;;;;;;;10.03;4.70;;;;;;;;;;1726255;82;21033;-69
2022/05/19 00:28:40;;;;;;;7.85;4.45;;;;;;;;;;1735660;82;21065;-69
2022/05/19 00:31:08;;;;;;;11.03;4.53;;;;;;;;;;1753727;82;20966;-68
2022/05/19 00:33:35;;;;;;;10.58;4.90;;;;;;;;;;1751268;82;21110;-69
2022/05/19 00:36:07;;;;;;;11.03;5.05;;;;;;;;;;1734156;82;21104;-69
2022/05/19 00:38:34;;;;;;;10.88;5.40;;;;;;;;;;1749411;82;21016;-68
2022/05/19 00:41:00;;;;;;;9.08;4.75;;;;;;;;;;1753502;81;21040;-68
2022/05/19 00:43:28;;;;;;;11.03;5.55;;;;;;;;;;1728478;81;21806;-67
2022/05/19 00:46:05;;;;;;;7.80;4.83;;;;;;;;;;1751785;82;21798;-68
2022/05/19 00:48:36;;;;;;;10.08;4.97;;;;;;;;;;1751948;82;22467;-68
2022/05/19 00:51:03;;;;;;;8.50;5.28;;;;;;;;;;1753339;81;21017;-68
2022/05/19 00:53:38;;;;;;;11.05;4.72;;;;;;;;;;1753220;82;21111;-68
2022/05/19 00:56:09;;;;;;;14.43;5.55;;;;;;;;;;1736461;82;21092;-68
2022/05/19 00:58:36;;;;;;;12.13;5.22;;;;;;;;;;1717138;82;21100;-68
2022/05/19 01:03:55;;;;;;;11.12;5.20;;;;;;;;;;1739923;80;21184;-68
2022/05/19 01:06:22;;;;;;;10.93;5.62;;;;;;;;;;1796033;80;21071;-68
2022/05/19 01:08:50;;;;;;;12.43;5.10;;;;;;;;;;1796726;80;21028;-68
2022/05/19 01:11:16;;;;;;;8.80;4.78;;;;;;;;;;1797140;80;20993;-68
2022/05/19 01:13:42;;;;;;;9.83;4.75;;;;;;;;;;1796832;80;20997;-68
2022/05/19 01:16:08;;;;;;;13.55;5.30;;;;;;;;;;1796983;80;21063;-68
2022/05/19 01:18:35;;;;;;;8.88;4.87;;;;;;;;;;1797391;80;21546;-68
2022/05/19 01:21:01;;;;;;;8.60;5.37;;;;;;;;;;1797096;80;20965;-67
2022/05/19 01:23:32;;;;;;;10.58;5.10;;;;;;;;;;1797098;80;20980;-68
2022/05/19 01:26:00;;;;;;;9.33;4.97;;;;;;;;;;1796929;80;21040;-68
2022/05/19 01:28:27;;;;;;;10.55;5.78;;;;;;;;;;1797114;80;20985;-68
2022/05/19 01:30:54;;;;;;;12.50;5.53;;;;;;;;;;1796925;80;21188;-68
2022/05/19 01:33:20;;;;;;;13.25;5.92;;;;;;;;;;1796905;80;20985;-68
2022/05/19 01:35:46;;;;;;;9.53;5.47;;;;;;;;;;1796997;80;21064;-68
2022/05/19 01:38:14;;;;;;;12.33;5.60;;;;;;;;;;1796705;80;21539;-69
2022/05/19 01:40:50;;;;;;;12.35;5.12;;;;;;;;;;1794649;80;21024;-67
2022/05/19 01:43:34;;;;;;;10.13;5.37;;;;;;;;;;1796827;80;21028;-67
2022/05/19 01:46:08;;;;;;;10.18;5.55;;;;;;;;;;1797216;80;20997;-67
2022/05/19 01:48:40;;;;;;;11.38;5.37;;;;;;;;;;1797040;80;21008;-68
2022/05/19 01:51:11;;;;;;;13.55;6.03;;;;;;;;;;1797112;80;21567;-68
2022/05/19 01:53:39;;;;;;;10.30;5.70;;;;;;;;;;1796919;80;21508;-68
2022/05/19 01:56:22;;;;;;;13.68;5.75;;;;;;;;;;1797235;80;21500;-68
2022/05/19 01:58:51;;;;;;;12.50;5.83;;;;;;;;;;1712353;83;21538;-68
2022/05/19 02:01:17;;;;;;;12.37;6.50;;;;;;;;;;1766204;80;21067;-68
2022/05/19 02:03:48;;;;;;;10.68;5.78;;;;;;;;;;1782491;80;21117;-68
2022/05/19 02:06:28;;;;;;;12.15;5.85;;;;;;;;;;1773628;80;21056;-68
2022/05/19 02:08:54;;;;;;;10.58;4.92;;;;;;;;;;1785034;80;21000;-68
2022/05/19 02:11:23;;;;;;;10.45;5.92;;;;;;;;;;1788038;80;21567;-67
2022/05/19 02:13:52;;;;;;;12.78;6.05;;;;;;;;;;1789150;80;21035;-68
2022/05/19 02:16:18;;;;;;;8.98;5.53;;;;;;;;;;1774475;80;21063;-67
2022/05/19 02:18:47;;;;;;;12.53;5.80;;;;;;;;;;1746459;81;21629;-68
2022/05/19 02:21:13;;;;;;;10.40;5.12;;;;;;;;;;1765869;80;20984;-68
2022/05/19 02:23:40;;;;;;;11.18;5.78;;;;;;;;;;1749845;80;20974;-68
2022/05/19 02:26:06;;;;;;;13.55;5.42;;;;;;;;;;1773162;79;21544;-69
2022/05/19 02:28:33;;;;;;;11.28;6.08;;;;;;;;;;1765089;80;20977;-68
2022/05/19 02:31:00;;;;;;;10.55;6.20;;;;;;;;;;1764880;80;21661;-68
2022/05/19 02:33:27;;;;;;;9.20;6.05;;;;;;;;;;1765732;80;21047;-68
2022/05/19 02:35:53;;;;;;;11.50;5.62;;;;;;;;;;1765961;80;21115;-69
2022/05/19 02:38:19;;;;;;;10.88;5.55;;;;;;;;;;1772928;80;21009;-69
2022/05/19 02:40:47;;;;;;;9.75;5.08;;;;;;;;;;1782059;80;21512;-69
2022/05/19 02:43:14;;;;;;;10.20;5.33;;;;;;;;;;1778319;80;21519;-69
2022/05/19 02:45:42;;;;;;;13.62;6.25;;;;;;;;;;1771662;80;21048;-69
2022/05/19 02:48:11;;;;;;;12.23;5.45;;;;;;;;;;1765366;80;21076;-69
2022/05/19 02:50:39;;;;;;;9.83;5.08;;;;;;;;;;1765249;80;21319;-69
2022/05/19 02:53:05;;;;;;;10.45;4.92;;;;;;;;;;1765634;80;21020;-69
2022/05/19 02:55:31;;;;;;;12.35;5.62;;;;;;;;;;1765408;80;21020;-69
2022/05/19 02:58:00;;;;;;;9.35;5.12;;;;;;;;;;1774075;80;21028;-69
2022/05/19 03:00:27;;;;;;;11.45;5.45;;;;;;;;;;1787881;80;20977;-69
2022/05/19 03:02:53;;;;;;;12.58;5.90;;;;;;;;;;1767872;80;21552;-68
2022/05/19 03:05:20;;;;;;;13.72;6.25;;;;;;;;;;1754101;81;21044;-68
2022/05/19 03:07:47;;;;;;;11.45;5.60;;;;;;;;;;1739520;82;21029;-68
2022/05/19 03:10:14;;;;;;;12.18;5.45;;;;;;;;;;1739636;82;21546;-69
2022/05/19 03:12:40;;;;;;;12.23;5.78;;;;;;;;;;1739585;82;21519;-68
2022/05/19 03:15:07;;;;;;;14.50;6.37;;;;;;;;;;1739615;82;21008;-68
2022/05/19 03:17:33;;;;;;;12.45;6.08;;;;;;;;;;1739434;82;21555;-68
2022/05/19 03:19:59;;;;;;;10.18;5.47;;;;;;;;;;1739653;82;21048;-68
2022/05/19 03:22:25;;;;;;;10.08;5.97;;;;;;;;;;1739548;82;21018;-67
2022/05/19 03:24:52;;;;;;;12.35;6.37;;;;;;;;;;1739385;82;21059;-68
2022/05/19 03:27:21;;;;;;;10.82;5.95;;;;;;;;;;1739479;82;21164;-68
2022/05/19 03:29:47;;;;;;;12.85;5.78;;;;;;;;;;1739476;82;20980;-68
2022/05/19 03:32:14;;;;;;;12.88;6.05;;;;;;;;;;1739684;82;21012;-68
2022/05/19 03:34:40;;;;;;;12.40;6.60;;;;;;;;;;1739546;82;20985;-68
2022/05/19 03:37:07;;;;;;;12.58;6.25;;;;;;;;;;1739433;82;21041;-68
2022/05/19 03:39:34;;;;;;;13.28;6.83;;;;;;;;;;1739110;82;21022;-68
2022/05/19 03:42:00;;;;;;;13.95;7.20;;;;;;;;;;1739358;82;21050;-68
2022/05/19 03:44:26;;;;;;;13.20;7.03;;;;;;;;;;1739157;82;20996;-69
2022/05/19 03:46:52;;;;;;;13.20;6.00;;;;;;;;;;1739648;82;21039;-69
2022/05/19 03:49:18;;;;;;;13.03;6.65;;;;;;;;;;1739251;82;21069;-69
2022/05/19 03:51:44;;;;;;;13.13;6.92;;;;;;;;;;1739471;82;21552;-69
2022/05/19 03:54:10;;;;;;;15.63;8.35;;;;;;;;;;1739273;82;21081;-69
2022/05/19 03:56:40;;;;;;;14.15;7.28;;;;;;;;;;1739178;82;21085;-69
2022/05/19 03:59:06;;;;;;;14.03;7.55;;;;;;;;;;1739462;82;21241;-69
2022/05/19 04:01:33;;;;;;;12.47;7.80;;;;;;;;;;1739234;81;21079;-70
2022/05/19 04:03:59;;;;;;;14.83;8.73;;;;;;;;;;1739494;82;21048;-69
2022/05/19 04:06:27;;;;;;;13.08;7.67;;;;;;;;;;1774010;80;21083;-69
2022/05/19 04:08:54;;;;;;;13.25;7.67;;;;;;;;;;1777332;80;21069;-69
2022/05/19 04:11:21;;;;;;;11.45;7.22;;;;;;;;;;1745354;81;21556;-69
2022/05/19 04:13:48;;;;;;;12.28;7.65;;;;;;;;;;1768490;81;21054;-70
2022/05/19 04:16:14;;;;;;;12.73;7.65;;;;;;;;;;1771323;80;21058;-70
2022/05/19 04:18:40;;;;;;;12.68;7.58;;;;;;;;;;1784733;80;21569;-70
2022/05/19 04:21:07;;;;;;;11.53;7.87;;;;;;;;;;1784377;80;21058;-70
2022/05/19 04:23:33;;;;;;;14.30;8.10;;;;;;;;;;1784603;80;21549;-70
2022/05/19 04:25:59;;;;;;;13.15;7.97;;;;;;;;;;1785578;80;21029;-69
2022/05/19 04:28:27;;;;;;;13.98;8.35;;;;;;;;;;1780654;80;21045;-70
2022/05/19 04:30:54;;;;;;;12.63;7.80;;;;;;;;;;1772094;80;21028;-70
2022/05/19 04:33:20;;;;;;;14.90;7.78;;;;;;;;;;1787250;79;21036;-70
2022/05/19 04:35:48;;;;;;;14.15;7.53;;;;;;;;;;1785748;80;21084;-70
2022/05/19 04:38:16;;;;;;;12.68;8.48;;;;;;;;;;1782055;80;21064;-70
2022/05/19 04:40:43;;;;;;;14.25;7.90;;;;;;;;;;1782162;80;20990;-70
2022/05/19 04:43:10;;;;;;;16.87;8.73;;;;;;;;;;1774253;80;21038;-70
2022/05/19 04:45:37;;;;;;;12.90;7.97;;;;;;;;;;1769481;80;21061;-70
2022/05/19 04:48:03;;;;;;;15.95;8.53;;;;;;;;;;1768868;80;21487;-70
2022/05/19 04:50:31;;;;;;;13.83;8.33;;;;;;;;;;1768384;81;21100;-70
2022/05/19 04:52:58;;;;;;;12.68;8.43;;;;;;;;;;1781194;80;21025;-70
2022/05/19 04:55:25;;;;;;;13.18;7.83;;;;;;;;;;1774134;80;21013;-70
2022/05/19 04:57:51;;;;;;;14.03;7.87;;;;;;;;;;1774113;80;21029;-70
2022/05/19 05:00:17;;;;;;;14.87;8.65;;;;;;;;;;1782145;80;21134;-70
2022/05/19 05:02:43;;;;;;;15.85;8.83;;;;;;;;;;1784429;79;21085;-70
2022/05/19 05:05:10;;;;;;;15.40;8.33;;;;;;;;;;1776958;80;21206;-71
2022/05/19 05:07:36;;;;;;;12.68;8.35;;;;;;;;;;1760026;81;21028;-70
2022/05/19 05:10:03;;;;;;;14.73;8.15;;;;;;;;;;1760293;81;21035;-70
2022/05/19 05:12:29;;;;;;;13.05;8.15;;;;;;;;;;1759963;81;21056;-70
2022/05/19 05:14:57;;;;;;;17.25;9.00;;;;;;;;;;1760181;81;21044;-70
2022/05/19 05:17:23;;;;;;;13.50;8.35;;;;;;;;;;1760318;81;21015;-70
2022/05/19 05:19:49;;;;;;;13.83;8.45;;;;;;;;;;1760200;81;21020;-70
2022/05/19 05:22:15;;;;;;;15.45;9.38;;;;;;;;;;1760366;81;21102;-70
2022/05/19 05:24:43;;;;;;;13.45;8.65;;;;;;;;;;1760276;81;21031;-71
2022/05/19 05:27:11;;;;;;;16.37;9.28;;;;;;;;;;1760252;81;21067;-71
2022/05/19 05:29:39;;;;;;;15.83;9.68;;;;;;;;;;1760398;81;21542;-71
2022/05/19 05:32:06;;;;;;;14.83;9.20;;;;;;;;;;1760261;81;21009;-71
2022/05/19 05:34:33;;;;;;;15.80;9.70;;;;;;;;;;1760424;81;21052;-71
2022/05/19 05:36:59;;;;;;;14.50;8.68;;;;;;;;;;1760519;81;21087;-70
2022/05/19 05:40:26;;;;;;;17.17;9.38;;;;;;;;;;1805742;78;23055;-70
2022/05/19 05:42:53;;;;;;;17.00;9.05;;;;;;;;;;1791016;80;21074;-71
2022/05/19 05:45:19;;;;;;;18.85;10.18;;;;;;;;;;1772894;79;21035;-71
2022/05/19 05:47:45;;;;;;;14.87;9.38;;;;;;;;;;1793202;79;21550;-70
2022/05/19 05:50:12;;;;;;;14.47;9.58;;;;;;;;;;1779843;79;21087;-70
2022/05/19 05:52:39;;;;;;;15.50;10.03;;;;;;;;;;1771416;79;21028;-70
2022/05/19 05:55:06;;;;;;;16.67;9.93;;;;;;;;;;1795718;79;21016;-70
2022/05/19 05:57:33;;;;;;;14.87;8.58;;;;;;;;;;1749186;79;21067;-70
2022/05/19 06:00:01;;;;;;;13.60;8.10;;;;;;;;;;1796477;79;21039;-71
2022/05/19 06:02:27;;;;;;;13.50;8.93;;;;;;;;;;1781316;79;21114;-70
2022/05/19 06:04:54;;;;;;;14.93;8.88;;;;;;;;;;1764791;81;21062;-69
2022/05/19 06:07:19;;;;;;;15.05;8.75;;;;;;;;;;1759021;81;21003;-70
2022/05/19 06:09:45;;;;;;;12.68;8.18;;;;;;;;;;1764404;80;21504;-71
2022/05/19 06:12:12;;;;;;;12.28;7.60;;;;;;;;;;1733870;80;20997;-70
2022/05/19 06:14:38;;;;;;;12.73;8.43;;;;;;;;;;1765018;81;21031;-69
2022/05/19 06:17:05;;;;;;;15.25;8.80;;;;;;;;;;1759214;81;20999;-70
2022/05/19 06:19:33;;;;;;;13.62;8.03;;;;;;;;;;1768414;81;21546;-71
2022/05/19 06:21:58;;;;;;;12.53;7.28;;;;;;;;;;1751890;80;21068;-70
2022/05/19 06:24:24;;;;;;;11.08;7.80;;;;;;;;;;1764583;81;21586;-71
2022/05/19 06:26:50;;;;;;;13.13;7.22;;;;;;;;;;1743339;81;21033;-70
2022/05/19 06:29:18;;;;;;;12.03;6.97;;;;;;;;;;1760583;80;21071;-71
2022/05/19 06:31:44;;;;;;;11.68;6.75;;;;;;;;;;1753975;80;20999;-71
2022/05/19 06:34:10;;;;;;;10.95;6.58;;;;;;;;;;1754950;81;21413;-69
2022/05/19 06:36:36;;;;;;;11.00;5.55;;;;;;;;;;1749330;81;21095;-70
2022/05/19 06:39:03;;;;;;;10.80;5.65;;;;;;;;;;1762254;81;20972;-69
2022/05/19 06:44:17;;;;;;;9.45;6.53;;;;;;;;;;1741569;80;21026;-69
2022/05/19 06:46:44;;;;;;;11.93;6.20;;;;;;;;;;1750904;81;21562;-70
2022/05/19 06:49:11;;;;;;;10.90;6.08;;;;;;;;;;1754288;80;21011;-70
2022/05/19 06:51:38;;;;;;;8.45;5.72;;;;;;;;;;1753237;80;21039;-71
2022/05/19 06:54:04;;;;;;;8.85;5.45;;;;;;;;;;1753821;81;21007;-70
2022/05/19 06:56:30;;;;;;;7.55;5.28;;;;;;;;;;1722951;81;20952;-70
2022/05/19 06:58:56;;;;;;;8.00;4.58;;;;;;;;;;1768251;81;21011;-70
2022/05/19 07:01:23;;;;;;;7.87;4.10;;;;;;;;;;1750449;80;21026;-70
2022/05/19 07:03:49;;;;;;;6.45;4.62;;;;;;;;;;1753374;81;21079;-70
2022/05/19 07:06:15;;;;;;;7.25;3.87;;;;;;;;;;1748747;81;21101;-70
2022/05/19 07:08:41;;;;;;;4.58;3.37;;;;;;;;;;1737629;80;21046;-70
2022/05/19 07:11:24;;;;;;;5.28;3.33;;;;;;;;;;1743250;80;21055;-71
2022/05/19 07:13:38;;;;;;;5.42;3.02;;;;;;;;;;1756727;80;21023;-71
2022/05/19 07:16:04;;;;;;;4.47;2.87;;;;;;;;;;1764939;81;21003;-69
2022/05/19 07:18:31;;;;;;;5.67;2.75;;;;;;;;;;1758642;81;21004;-71
2022/05/19 07:20:58;;;;;;;4.28;2.40;;;;;;;;;;1763774;81;21023;-71
2022/05/19 07:23:28;;;;;;;3.35;2.40;;;;;;;;;;1764578;80;20975;-69
2022/05/19 07:25:55;;;;;;;5.40;2.58;;;;;;;;;;1747620;81;21031;-68
2022/05/19 07:28:22;;;;;;;4.97;2.70;;;;;;;;;;1753500;80;20972;-68
2022/05/19 07:30:49;;;;;;;4.00;2.42;;;;;;;;;;1751961;80;21054;-67
2022/05/19 07:33:16;;;;;;;4.40;2.77;;;;;;;;;;1753609;80;21507;-68
2022/05/19 07:35:45;;;;;;;3.00;2.30;;;;;;;;;;1748203;81;21022;-68
2022/05/19 07:38:10;;;;;;;4.10;2.30;;;;;;;;;;1768021;81;21020;-69
2022/05/19 07:40:37;;;;;;;4.78;2.98;;;;;;;;;;1763717;81;21159;-69
2022/05/19 07:45:48;;;;;;;5.67;3.47;;;;;;;;;;1763533;80;21074;-69
2022/05/19 07:48:15;;;;;;;5.28;2.92;;;;;;;;;;1766978;80;21601;-68
2022/05/19 07:50:40;;;;;;;5.20;3.08;;;;;;;;;;1761091;80;21554;-68
2022/05/19 07:53:07;;;;;;;4.37;3.10;;;;;;;;;;1757067;81;21047;-69
2022/05/19 07:55:34;;;;;;;6.35;3.60;;;;;;;;;;1739453;80;21020;-68
2022/05/19 07:58:00;;;;;;;6.65;3.60;;;;;;;;;;1757261;81;20976;-69
2022/05/19 08:00:26;;;;;;;6.05;3.80;;;;;;;;;;1753308;81;21052;-69
2022/05/19 08:02:51;;;;;;;5.65;3.25;;;;;;;;;;1754666;80;21507;-69
2022/05/19 08:05:18;;;;;;;6.60;3.80;;;;;;;;;;1755986;81;21090;-69
2022/05/19 08:07:44;;;;;;;5.00;3.35;;;;;;;;;;1768433;81;22124;-68
2022/05/19 08:10:25;;;;;;;9.78;4.20;;;;;;;;;;1765988;81;20987;-69
2022/05/19 08:15:38;;;;;;;9.93;6.00;;;;;;;;;;1766960;80;21018;-68
2022/05/19 08:18:13;;;;;;;8.25;5.58;;;;;;;;;;1741910;80;21007;-67
2022/05/19 08:20:41;;;;;;;13.18;6.97;;;;;;;;;;1745332;80;21007;-67
2022/05/19 08:23:08;;;;;;;12.05;6.33;;;;;;;;;;1758011;80;21689;-69
2022/05/19 08:25:35;;;;;;;11.93;5.83;;;;;;;;;;1753391;81;21035;-68
2022/05/19 08:28:01;;;;;;;11.73;6.20;;;;;;;;;;1758783;80;21019;-68
2022/05/19 08:30:28;;;;;;;10.80;6.40;;;;;;;;;;1766065;81;21046;-68
2022/05/19 08:32:55;;;;;;;12.00;6.00;;;;;;;;;;1756017;81;21063;-67
2022/05/19 08:35:22;;;;;;;10.80;5.60;;;;;;;;;;1749466;80;21036;-68
2022/05/19 08:37:49;;;;;;;14.53;5.95;;;;;;;;;;1758804;80;21050;-68
2022/05/19 08:40:16;;;;;;;9.55;4.90;;;;;;;;;;1752108;81;21080;-68
2022/05/19 08:42:43;;;;;;;6.95;3.72;;;;;;;;;;1758062;81;21003;-67
2022/05/19 08:45:28;;;;;;;8.65;4.03;;;;;;;;;;1762356;81;21063;-67
2022/05/19 08:47:56;;;;;;;4.80;3.20;;;;;;;;;;1765130;81;21035;-68
2022/05/19 08:50:24;;;;;;;7.80;3.00;;;;;;;;;;1747787;81;21015;-67
2022/05/19 08:52:51;;;;;;;7.83;4.20;;;;;;;;;;1759343;80;21074;-67
2022/05/19 08:55:16;;;;;;;6.22;3.87;;;;;;;;;;1743143;81;21023;-68
2022/05/19 08:57:54;;;;;;;7.03;3.67;;;;;;;;;;1718500;81;21530;-67
2022/05/19 09:00:28;;;;;;;5.80;3.15;;;;;;;;;;1750155;80;21038;-67
2022/05/19 09:02:56;;;;;;;4.17;3.10;;;;;;;;;;1767248;80;21554;-68
2022/05/19 09:07:58;;;;;;;4.90;2.50;;;;;;;;;;1857226;77;23033;-68
2022/05/19 09:10:33;;;;;;;4.87;2.62;;;;;;;;;;1829039;78;21103;-68
2022/05/19 09:13:11;;;;;;;4.60;2.50;;;;;;;;;;1829197;78;21059;-68
2022/05/19 09:15:39;;;;;;;4.60;2.83;;;;;;;;;;1829210;78;21594;-68
2022/05/19 09:18:05;;;;;;;4.00;2.58;;;;;;;;;;1829055;78;21571;-68
2022/05/19 09:20:34;;;;;;;4.97;2.70;;;;;;;;;;1829285;78;21071;-68
2022/05/19 09:23:04;;;;;;;4.45;2.80;;;;;;;;;;1829035;78;21040;-67
2022/05/19 09:25:30;;;;;;;4.92;2.62;;;;;;;;;;1829221;78;21019;-67
2022/05/19 09:27:57;;;;;;;6.50;2.92;;;;;;;;;;1829334;78;21087;-67
2022/05/19 09:30:37;;;;;;;3.58;2.40;;;;;;;;;;1828918;78;21111;-67
2022/05/19 09:33:14;;;;;;;3.25;2.55;;;;;;;;;;1829505;78;21028;-67
2022/05/19 09:35:42;;;;;;;4.75;2.50;;;;;;;;;;1828963;78;21028;-67
2022/05/19 09:38:17;;;;;;;4.55;2.47;;;;;;;;;;1829344;78;21108;-67
2022/05/19 09:40:43;;;;;;;;;;;;;;;;;;1831875;78;21079;-67
2022/05/19 09:43:18;;;;;;;5.10;2.67;;;;;;;;;;1829311;78;20113;-67
2022/05/19 09:45:46;;;;;;;4.72;2.50;;;;;;;;;;1828968;78;21054;-67
2022/05/19 09:48:12;;;;;;;5.15;3.02;;;;;;;;;;1829388;78;21024;-67
2022/05/19 09:50:43;;;;;;;4.53;2.80;;;;;;;;;;1828891;78;21056;-67
2022/05/19 09:53:15;;;;;;;4.97;2.87;;;;;;;;;;1829269;78;20980;-67
2022/05/19 09:55:43;;;;;;;4.28;2.40;;;;;;;;;;1829199;78;20969;-67
2022/05/19 09:58:10;;;;;;;4.12;2.45;;;;;;;;;;1829323;78;21554;-68
2022/05/19 10:00:37;;;;;;;4.17;2.67;;;;;;;;;;1828720;78;21039;-66
2022/05/19 10:03:14;;;;;;;6.12;2.80;;;;;;;;;;1828729;78;21571;-67
2022/05/19 10:05:48;;;;;;;5.20;2.90;;;;;;;;;;1759349;80;21055;-67
2022/05/19 10:08:18;;;;;;;4.35;2.80;;;;;;;;;;1753536;82;21040;-67
2022/05/19 10:11:05;;;;;;;8.25;2.98;;;;;;;;;;1787268;80;21098;-67
2022/05/19 10:13:33;;;;;;;6.60;2.95;;;;;;;;;;1787592;80;21035;-67
2022/05/19 10:16:01;;;;;;;4.47;3.12;;;;;;;;;;1787405;80;21047;-68
2022/05/19 10:18:31;;;;;;;4.80;2.70;;;;;;;;;;1787021;80;21064;-68
2022/05/19 10:21:02;;;;;;;3.70;2.77;;;;;;;;;;1785810;80;21491;-67
2022/05/19 10:23:35;;;;;;;4.42;2.70;;;;;;;;;;1786181;80;20993;-67
2022/05/19 10:26:06;;;;;;;4.47;2.85;;;;;;;;;;1786545;80;21020;-68
2022/05/19 10:31:35;;;;;;;6.55;2.90;;;;;;;;;;1787067;80;21508;-67
2022/05/19 10:34:02;;;;;;;5.05;3.15;;;;;;;;;;1786751;80;21587;-67
2022/05/19 10:36:49;;;;;;;4.62;2.77;;;;;;;;;;1787148;80;21547;-67
2022/05/19 10:39:32;;;;;;;5.97;2.98;;;;;;;;;;1786960;80;21227;-66
2022/05/19 10:42:17;;;;;;;5.10;2.50;;;;;;;;;;1787107;80;20977;-66
2022/05/19 10:44:52;;;;;;;5.08;2.47;;;;;;;;;;1786852;80;20969;-66
2022/05/19 10:47:32;;;;;;;3.75;2.20;;;;;;;;;;1786973;80;21000;-67
2022/05/19 10:50:17;;;;;;;5.80;2.25;;;;;;;;;;1787049;80;21056;-67
2022/05/19 10:53:02;;;;;;;3.72;2.37;;;;;;;;;;1787047;80;21552;-67
2022/05/19 10:55:39;;;;;;;4.90;2.37;;;;;;;;;;1786936;80;21020;-67
2022/05/19 10:58:16;;;;;;;4.03;2.30;;;;;;;;;;1787096;80;21471;-67
2022/05/19 11:00:57;;;;;;;4.50;2.37;;;;;;;;;;1786779;80;21067;-67
2022/05/19 11:03:25;;;;;;;5.53;2.22;;;;;;;;;;1787195;80;21671;-67
2022/05/19 11:05:53;;;;;;;3.70;2.75;;;;;;;;;;1786837;80;21024;-67
2022/05/19 11:08:28;;;;;;;4.72;1.92;;;;;;;;;;1777808;80;21079;-67
2022/05/19 11:10:57;;;;;;;2.62;2.02;;;;;;;;;;1778841;81;21060;-67
2022/05/19 11:13:29;;;;;;;4.53;2.02;;;;;;;;;;1778890;81;21497;-66
2022/05/19 11:15:57;;;;;;;5.22;2.40;;;;;;;;;;1778892;81;21516;-67
2022/05/19 11:18:25;;;;;;;4.03;2.22;;;;;;;;;;1778838;81;21032;-67
2022/05/19 11:21:05;;;;;;;5.42;2.58;;;;;;;;;;1778783;81;21021;-68
2022/05/19 11:23:42;;;;;;;3.27;2.10;;;;;;;;;;1778775;81;21255;-67
2022/05/19 11:26:26;;;;;;;4.47;2.02;;;;;;;;;;1778601;81;21400;-66
2022/05/19 11:28:58;;;;;;;3.35;2.02;;;;;;;;;;1778727;81;21072;-68
2022/05/19 11:31:41;;;;;;;4.92;2.50;;;;;;;;;;1778697;81;20981;-68
2022/05/19 11:34:09;;;;;;;4.10;2.40;;;;;;;;;;1778932;81;21496;-67
2022/05/19 11:36:38;;;;;;;4.85;2.02;;;;;;;;;;1778245;81;21496;-67
2022/05/19 11:39:09;;;;;;;4.33;2.15;;;;;;;;;;1778918;81;21055;-68
2022/05/19 11:41:36;;;;;;;3.12;2.00;;;;;;;;;;1778232;80;21032;-67
2022/05/19 11:44:07;;;;;;;4.15;2.20;;;;;;;;;;1778725;81;21061;-67
2022/05/19 11:46:44;;;;;;;3.90;2.17;;;;;;;;;;1778707;81;21052;-67
2022/05/19 11:57:33;;;;;;;3.08;1.70;;;;;;;;;;1778742;81;21017;-67
2022/05/19 12:00:00;;;;;;;4.25;2.05;;;;;;;;;;1778677;81;21608;-67
2022/05/19 12:02:32;;;;;;;2.22;1.70;;;;;;;;;;1778170;81;21083;-67
2022/05/19 12:05:10;;;;;;;2.40;1.80;;;;;;;;;;1777297;81;21060;-67
2022/05/19 12:07:32;;;;;;;5.92;2.27;;;;;;;;;;1777442;80;21021;-68
2022/05/19 12:09:59;;;;;;;3.35;2.00;;;;;;;;;;1777361;80;20997;-67
2022/05/19 12:12:29;;;;;;;3.30;2.00;;;;;;;;;;1778572;81;21132;-67
2022/05/19 12:15:14;;;;;;;2.58;1.80;;;;;;;;;;1778613;81;21508;-67
2022/05/19 12:17:41;;;;;;;1.72;1.60;;;;;;;;;;1778684;81;20993;-67
2022/05/19 12:20:26;;;;;;;2.47;1.47;;;;;;;;;;1778630;81;21005;-68
2022/05/19 12:22:57;;;;;;;2.85;1.50;;;;;;;;;;1778369;81;20965;-67
2022/05/19 12:25:25;;;;;;;2.10;1.70;;;;;;;;;;1760465;81;21547;-67
2022/05/19 12:27:59;;;;;;;4.25;1.80;;;;;;;;;;1778762;81;20989;-67
2022/05/19 12:33:25;;;;;;;2.35;1.85;;;;;;;;;;1778943;81;21032;-67
2022/05/19 12:35:55;;;;;;;4.10;1.90;;;;;;;;;;1778649;81;21076;-66
2022/05/19 12:38:29;;;;;;;4.62;2.35;;;;;;;;;;1762881;81;21115;-66
2022/05/19 12:40:55;;;;;;;3.92;2.10;;;;;;;;;;1778757;81;21000;-68
2022/05/19 12:43:30;;;;;;;3.27;2.20;;;;;;;;;;1779171;81;21032;-68
2022/05/19 12:45:57;;;;;;;4.78;2.30;;;;;;;;;;1778535;81;21016;-67
2022/05/19 12:48:25;;;;;;;3.22;2.00;;;;;;;;;;1778669;81;21009;-67
2022/05/19 12:50:52;;;;;;;4.78;2.17;;;;;;;;;;1771478;81;21090;-68
2022/05/19 12:53:27;;;;;;;4.80;1.90;;;;;;;;;;1778715;81;21487;-67
2022/05/19 12:55:54;;;;;;;5.85;1.90;;;;;;;;;;1778538;81;21578;-68
2022/05/19 12:58:34;;;;;;;3.05;1.70;;;;;;;;;;1778766;81;21005;-66
2022/05/19 13:01:13;;;;;;;2.80;1.65;;;;;;;;;;1778684;81;20996;-67
2022/05/19 13:03:40;;;;;;;2.80;1.85;;;;;;;;;;1778521;81;21013;-67
2022/05/19 13:06:06;;;;;;;5.87;1.80;;;;;;;;;;1778569;81;21536;-67
2022/05/19 13:08:39;;;;;;;2.33;1.70;;;;;;;;;;1789843;80;21393;-68
2022/05/19 13:11:10;;;;;;;6.15;2.27;;;;;;;;;;1792624;80;21020;-67
2022/05/19 13:13:43;;;;;;;4.35;2.10;;;;;;;;;;1792530;80;21506;-66
2022/05/19 13:16:28;;;;;;;4.55;2.15;;;;;;;;;;1792559;80;21495;-67
2022/05/19 13:18:55;;;;;;;4.05;2.10;;;;;;;;;;1792868;80;21468;-68
2022/05/19 13:21:34;;;;;;;3.70;2.05;;;;;;;;;;1792405;80;21019;-67
2022/05/19 13:24:06;;;;;;;3.50;2.10;;;;;;;;;;1792540;80;21000;-68
2022/05/19 13:26:27;;;;;;;4.42;1.95;;;;;;;;;;1791597;80;21001;-68
2022/05/19 13:31:50;;;;;;;6.50;1.80;;;;;;;;;;1792565;80;21036;-67
2022/05/19 13:34:17;;;;;;;2.83;1.77;;;;;;;;;;1791870;80;21015;-67
2022/05/19 13:36:42;;;;;;;5.42;2.80;;;;;;;;;;1782217;80;21024;-66
2022/05/19 13:39:12;;;;;;;2.87;1.77;;;;;;;;;;1764338;80;21019;-67
2022/05/19 13:41:45;;;;;;;3.08;1.85;;;;;;;;;;1791562;80;21056;-67
2022/05/19 13:44:12;;;;;;;3.55;2.00;;;;;;;;;;1792783;80;21023;-67
2022/05/19 13:46:39;;;;;;;3.35;1.85;;;;;;;;;;1792441;80;21063;-67
2022/05/19 13:49:07;;;;;;;6.45;2.00;;;;;;;;;;1792487;80;20970;-67
2022/05/19 13:51:35;;;;;;;3.60;2.00;;;;;;;;;;1791703;80;21083;-67
2022/05/19 13:54:02;;;;;;;3.30;2.00;;;;;;;;;;1792533;80;21532;-67
2022/05/19 13:56:36;;;;;;;3.50;1.92;;;;;;;;;;1792356;80;21004;-68
2022/05/19 13:59:03;;;;;;;3.72;1.80;;;;;;;;;;1792868;80;21087;-67
2022/05/19 14:01:30;;;;;;;3.27;1.77;;;;;;;;;;1792206;80;21582;-67
2022/05/19 14:03:57;;;;;;;4.92;1.82;;;;;;;;;;1792584;80;21040;-66
2022/05/19 14:06:24;;;;;;;4.17;2.00;;;;;;;;;;1792509;80;21024;-67
2022/05/19 14:08:52;;;;;;;3.02;1.70;;;;;;;;;;1792395;80;20992;-67
2022/05/19 14:11:18;;;;;;;3.67;1.85;;;;;;;;;;1792776;80;21051;-67
2022/05/19 14:13:44;;;;;;;2.62;1.77;;;;;;;;;;1792794;80;21000;-66
2022/05/19 14:16:12;;;;;;;4.65;2.08;;;;;;;;;;1792752;80;22013;-67
2022/05/19 14:18:39;;;;;;;2.83;1.87;;;;;;;;;;1792689;80;20977;-68
2022/05/19 14:21:20;;;;;;;6.15;2.08;;;;;;;;;;1792483;80;21024;-68
2022/05/19 14:23:51;;;;;;;3.37;1.87;;;;;;;;;;1792383;80;21508;-67
2022/05/19 14:26:28;;;;;;;3.58;1.72;;;;;;;;;;1791753;80;21060;-66
2022/05/19 14:28:54;;;;;;;3.20;2.10;;;;;;;;;;1792562;80;20984;-67
2022/05/19 14:31:23;;;;;;;2.08;1.70;;;;;;;;;;1792547;80;21077;-68
2022/05/19 14:34:03;;;;;;;3.27;1.87;;;;;;;;;;1789905;80;21106;-68
2022/05/19 14:36:47;;;;;;;3.50;1.80;;;;;;;;;;1792511;80;21090;-67
2022/05/19 14:39:20;;;;;;;3.70;2.22;;;;;;;;;;1792594;80;21890;-68
2022/05/19 14:44:33;;;;;;;4.22;1.72;;;;;;;;;;1792386;80;20969;-68
2022/05/19 14:47:00;;;;;;;3.37;1.95;;;;;;;;;;1792436;80;21012;-67
2022/05/19 14:49:32;;;;;;;2.92;1.70;;;;;;;;;;1792576;80;21512;-67
2022/05/19 14:51:59;;;;;;;4.28;2.00;;;;;;;;;;1792220;80;21375;-67
2022/05/19 14:54:25;;;;;;;5.53;2.05;;;;;;;;;;1792309;80;20968;-67
2022/05/19 14:56:53;;;;;;;3.35;1.90;;;;;;;;;;1792021;80;21044;-67
2022/05/19 14:59:22;;;;;;;8.28;2.22;;;;;;;;;;1792421;80;21542;-67
2022/05/19 15:01:48;;;;;;;4.12;2.10;;;;;;;;;;1792002;80;21103;-66
2022/05/19 15:04:15;;;;;;;4.60;1.82;;;;;;;;;;1792626;80;21758;-67
2022/05/19 15:06:42;;;;;;;3.02;1.98;;;;;;;;;;1792140;80;21032;-66
2022/05/19 15:09:09;;;;;;;2.55;1.42;;;;;;;;;;1781421;80;21005;-68
2022/05/19 15:11:36;;;;;;;2.75;1.80;;;;;;;;;;1778774;81;21005;-67
2022/05/19 15:14:02;;;;;;;2.80;2.10;;;;;;;;;;1778721;81;20976;-67
2022/05/19 15:16:29;;;;;;;5.17;2.33;;;;;;;;;;1778747;81;21083;-67
2022/05/19 15:19:00;;;;;;;2.83;2.00;;;;;;;;;;1778677;81;21004;-68
2022/05/19 15:21:23;;;;;;;4.83;2.10;;;;;;;;;;1777460;80;21008;-67
2022/05/19 15:23:50;;;;;;;5.72;1.90;;;;;;;;;;1778812;81;21052;-67